This is the latest recevied weather packets stored in our database for station/object KB9GXK. If no packets are shown the sender has not sent any weather packets the latest 10 day(s).
| Time | Temp. | Humidity | Pressure | Rain* | Wind** | Luminosity | Snow |
|---|---|---|---|---|---|---|---|
| 1777395180 | 15.56° C | 62% | 1013.6 hPa | 0 mm | - | 716 W/m² | - |
| 1777394877 | 15.56° C | 62% | 1013.9 hPa | 0 mm | - | 274 W/m² | - |
| 1777394573 | 15° C | 64% | 1014.1 hPa | 0 mm | - | 813 W/m² | - |
| 1777394270 | 15.56° C | 63% | 1014.1 hPa | 0 mm | - | 306 W/m² | - |
| 1777393966 | 15° C | 62% | 1014.2 hPa | 0 mm | - | 305 W/m² | - |
| 1777393665 | 15° C | 62% | 1014 hPa | 0 mm | - | 417 W/m² | - |
| 1777393361 | 15° C | 62% | 1013.7 hPa | 0 mm | - | 761 W/m² | - |
| 1777393058 | 14.44° C | 64% | 1013.7 hPa | 0 mm | - | 756 W/m² | - |
| 1777392753 | 13.89° C | 64% | 1013.6 hPa | 0 mm | - | 700 W/m² | - |
| 1777392450 | 15° C | 63% | 1013.7 hPa | 0 mm | - | 249 W/m² | - |
| 1777392145 | 14.44° C | 64% | 1013.8 hPa | 0 mm | - | 416 W/m² | - |
| 1777391841 | 14.44° C | 64% | 1013.8 hPa | 0 mm | - | 378 W/m² | - |
| 1777391536 | 13.89° C | 65% | 1013.5 hPa | 0 mm | - | 504 W/m² | - |
| 1777391233 | 13.89° C | 66% | 1013.1 hPa | 0 mm | - | 278 W/m² | - |
| 1777390930 | 14.44° C | 65% | 1013.1 hPa | 0 mm | - | 305 W/m² | - |
| 1777390625 | 13.33° C | 66% | 1013.1 hPa | 0 mm | - | 677 W/m² | - |
| 1777390322 | 13.33° C | 68% | 1013 hPa | 0 mm | - | 392 W/m² | - |
| 1777390018 | 12.78° C | 68% | 1013.2 hPa | 0 mm | - | 281 W/m² | - |
| 1777389715 | 12.78° C | 68% | 1013.1 hPa | 0 mm | - | 235 W/m² | - |
| 1777389411 | 13.33° C | 68% | 1013 hPa | 0 mm | - | 205 W/m² | - |
| 1777389109 | 13.33° C | 68% | 1013.1 hPa | 0 mm | - | 243 W/m² | - |
| 1777388807 | 12.78° C | 69% | 1013 hPa | 0 mm | - | 304 W/m² | - |
| 1777388504 | 13.33° C | 68% | 1012.8 hPa | 0 mm | - | 236 W/m² | - |
| 1777388198 | 12.78° C | 68% | 1012.7 hPa | 0 mm | - | 241 W/m² | - |
| 1777387894 | 12.78° C | 69% | 1012.6 hPa | 0 mm | - | 314 W/m² | - |
* Rain latest hour (hover to see other rain measurements)
** Current wind speed in m/s (hover to see current wind gust speed)